createdAt,value
2022-10-19T00:06:53.030Z,29.87
2022-10-19T00:08:56.628Z,66.77
2022-10-19T00:11:08.052Z,59.43
2022-10-19T00:13:09.669Z,53.73
2022-10-19T00:15:11.230Z,57.23
2022-10-19T00:17:19.040Z,51.10
2022-10-19T00:19:24.047Z,40.97
2022-10-19T00:21:26.358Z,46.27
2022-10-19T00:23:34.051Z,41.80
2022-10-19T00:25:36.986Z,38.97
2022-10-19T00:27:38.964Z,53.90
2022-10-19T00:29:47.073Z,58.83
2022-10-19T00:31:52.100Z,61.57
2022-10-19T00:33:56.335Z,59.30
2022-10-19T00:36:04.047Z,29.23
2022-10-19T00:38:12.077Z,38.23
2022-10-19T00:40:13.849Z,31.73
2022-10-19T00:42:15.390Z,28.87
2022-10-19T00:44:23.101Z,27.77
2022-10-19T00:46:33.072Z,27.80
2022-10-19T00:48:34.632Z,26.13
2022-10-19T00:50:43.102Z,25.97
2022-10-19T00:52:44.788Z,27.73
2022-10-19T00:54:48.609Z,24.97
2022-10-19T00:57:00.088Z,30.50
2022-10-19T00:59:05.763Z,32.73
2022-10-19T01:01:10.861Z,37.63
2022-10-19T01:03:21.146Z,42.77
2022-10-19T01:05:23.229Z,31.07
2022-10-19T01:07:26.289Z,46.40
2022-10-19T01:09:34.115Z,58.60
2022-10-19T01:11:54.603Z,52.03
2022-10-19T01:14:33.884Z,36.33
2022-10-19T01:17:07.106Z,42.63
2022-10-19T01:19:30.038Z,44.20
2022-10-19T01:21:51.552Z,40.67
2022-10-19T01:24:02.115Z,43.67
2022-10-19T01:26:23.592Z,40.10
2022-10-19T01:29:10.255Z,35.83
2022-10-19T01:31:17.770Z,39.10
2022-10-19T01:33:41.009Z,37.10
2022-10-19T01:36:11.159Z,34.23
2022-10-19T01:38:31.121Z,34.30
2022-10-19T01:40:51.193Z,37.90
2022-10-19T01:43:09.235Z,35.53
2022-10-19T01:45:16.743Z,38.33
2022-10-19T01:47:52.018Z,34.90
2022-10-19T01:50:07.240Z,33.13
2022-10-19T01:52:12.648Z,35.73
2022-10-19T01:54:16.999Z,33.40
2022-10-19T01:56:28.184Z,37.73
2022-10-19T01:58:35.489Z,33.27
2022-10-19T02:00:40.049Z,36.93
2022-10-19T02:02:53.173Z,32.60
2022-10-19T02:04:57.665Z,40.43
2022-10-19T02:06:59.592Z,35.33
2022-10-19T02:09:08.178Z,40.60
2022-10-19T02:11:09.792Z,46.63
2022-10-19T02:13:15.157Z,42.13
2022-10-19T02:15:27.206Z,46.07
2022-10-19T02:17:34.321Z,51.40
2022-10-19T02:19:36.340Z,56.80
2022-10-19T02:21:44.203Z,55.50
2022-10-19T02:23:47.532Z,63.63
2022-10-19T02:25:51.524Z,53.57
2022-10-19T02:28:00.227Z,66.47
2022-10-19T02:30:22.407Z,93.37
2022-10-19T02:32:24.070Z,56.63
2022-10-19T02:34:32.236Z,88.17
2022-10-19T02:36:33.912Z,86.37
2022-10-19T02:38:35.567Z,88.23
2022-10-19T02:40:48.240Z,70.73
2022-10-19T02:42:58.387Z,95.87
2022-10-19T02:45:10.858Z,40.43
2022-10-19T02:47:25.237Z,45.77
2022-10-19T02:49:35.266Z,57.43
2022-10-19T02:51:39.914Z,38.70
2022-10-19T02:53:41.516Z,39.77
2022-10-19T02:55:50.288Z,35.90
2022-10-19T02:57:51.871Z,58.87
2022-10-19T02:59:53.405Z,60.03
2022-10-19T03:02:01.262Z,50.77
2022-10-19T03:04:02.905Z,75.10
2022-10-19T03:06:04.472Z,55.73
2022-10-19T03:08:12.289Z,44.43
2022-10-19T03:10:13.848Z,39.53
2022-10-19T03:12:15.828Z,46.60
2022-10-19T03:14:24.262Z,47.07
2022-10-19T03:16:25.886Z,54.20
2022-10-19T03:18:27.413Z,42.13
2022-10-19T03:20:35.307Z,40.77
2022-10-19T03:22:38.577Z,40.60
2022-10-19T03:24:40.145Z,44.30
2022-10-19T03:26:48.288Z,43.00
2022-10-19T03:28:49.899Z,88.60
2022-10-19T03:30:51.635Z,50.43
2022-10-19T03:32:59.297Z,43.40
2022-10-19T03:35:00.821Z,44.10
2022-10-19T03:37:09.285Z,49.17
2022-10-19T03:39:13.753Z,53.27
2022-10-19T03:41:15.410Z,70.83
2022-10-19T03:43:23.357Z,57.67
2022-10-19T03:45:24.921Z,47.50
2022-10-19T03:47:26.525Z,47.37
2022-10-19T03:49:36.766Z,56.70
2022-10-19T03:51:41.095Z,55.97
2022-10-19T03:53:43.556Z,48.93
2022-10-19T03:55:51.337Z,45.87
2022-10-19T03:57:52.917Z,44.33
2022-10-19T03:59:54.447Z,42.90
2022-10-19T04:02:02.322Z,49.90
2022-10-19T04:04:06.961Z,41.90
2022-10-19T04:06:15.801Z,45.63
2022-10-19T04:08:26.382Z,47.67
2022-10-19T04:10:27.911Z,47.20
2022-10-19T04:12:29.482Z,47.43
2022-10-19T04:14:45.808Z,49.00
2022-10-19T04:16:57.720Z,52.40
2022-10-19T04:18:59.978Z,45.13
2022-10-19T04:21:10.441Z,40.77
2022-10-19T04:23:12.168Z,50.43
2022-10-19T04:25:13.791Z,48.17
2022-10-19T04:27:22.370Z,44.33
2022-10-19T04:29:29.481Z,44.23
2022-10-19T04:31:32.305Z,41.20
2022-10-19T04:33:41.405Z,38.00
2022-10-19T04:35:42.996Z,41.60
2022-10-19T04:48:36.381Z,39.23
2022-10-19T04:50:37.943Z,39.93
2022-10-19T04:52:39.514Z,39.80
2022-10-19T04:54:47.393Z,39.37
2022-10-19T04:56:48.995Z,38.27
2022-10-19T04:58:50.520Z,34.20
2022-10-19T05:00:58.380Z,39.50
2022-10-19T05:03:00.156Z,34.57
2022-10-19T05:05:01.842Z,38.47
2022-10-19T05:07:09.404Z,34.27
2022-10-19T05:09:11.098Z,34.80
2022-10-19T05:11:14.718Z,39.77
2022-10-19T05:13:22.423Z,37.23
2022-10-19T05:15:24.025Z,36.13
2022-10-19T05:17:25.629Z,36.10
2022-10-19T05:19:33.430Z,30.97
2022-10-19T05:21:35.088Z,35.87
2022-10-19T05:23:37.178Z,35.33
2022-10-19T05:25:45.453Z,34.77
2022-10-19T05:27:51.507Z,33.10
2022-10-19T05:29:53.035Z,37.50
2022-10-19T05:32:01.434Z,33.23
2022-10-19T05:34:04.178Z,37.93
2022-10-19T05:36:16.691Z,42.07
2022-10-19T05:38:24.441Z,43.00
2022-10-19T05:40:25.997Z,40.67
2022-10-19T05:42:27.855Z,41.13
2022-10-19T05:44:36.464Z,36.43
2022-10-19T05:46:38.034Z,35.17
2022-10-19T05:48:40.623Z,37.40
2022-10-19T05:50:59.481Z,41.93
2022-10-19T05:53:01.011Z,38.53
2022-10-19T05:55:02.603Z,44.03
2022-10-19T05:57:10.471Z,34.63
2022-10-19T05:59:20.391Z,47.13
2022-10-19T06:01:21.939Z,32.47
2022-10-19T06:03:31.531Z,38.33
2022-10-19T06:05:35.677Z,41.57
2022-10-19T06:07:37.441Z,40.67
2022-10-19T06:09:45.489Z,43.00
2022-10-19T06:11:48.078Z,44.10
2022-10-19T06:13:51.445Z,32.87
2022-10-19T06:15:59.626Z,35.47
2022-10-19T06:18:01.195Z,35.70
2022-10-19T06:20:02.762Z,40.23
2022-10-19T06:22:10.522Z,36.73
2022-10-19T06:24:13.086Z,39.53
2022-10-19T06:26:15.208Z,52.47
2022-10-19T06:28:23.529Z,36.50
2022-10-19T06:30:25.937Z,46.93
2022-10-19T06:32:28.537Z,44.17
2022-10-19T06:34:36.528Z,35.87
2022-10-19T06:36:38.088Z,45.10
2022-10-19T06:38:40.184Z,42.63
2022-10-19T06:40:48.621Z,49.80
2022-10-19T06:42:50.542Z,46.93
2022-10-19T06:44:52.157Z,40.93
2022-10-19T06:47:00.534Z,34.73
2022-10-19T06:49:02.496Z,37.80
2022-10-19T06:51:07.533Z,38.60
2022-10-19T06:53:15.528Z,48.70
2022-10-19T06:55:18.000Z,34.20
2022-10-19T06:57:19.573Z,34.83
2022-10-19T06:59:27.562Z,38.33
2022-10-19T07:01:29.362Z,35.47
2022-10-19T07:03:30.999Z,37.00
2022-10-19T07:05:39.543Z,34.97
2022-10-19T07:07:47.667Z,30.17
2022-10-19T07:09:49.473Z,32.93
2022-10-19T07:11:52.153Z,31.73
2022-10-19T07:14:00.582Z,32.53
2022-10-19T07:16:20.571Z,30.57
2022-10-19T07:18:22.873Z,30.63
2022-10-19T07:20:30.595Z,31.03
2022-10-19T07:22:32.177Z,30.47
2022-10-19T07:24:33.736Z,30.97
2022-10-19T07:26:41.626Z,30.80
2022-10-19T07:28:45.457Z,31.87
2022-10-19T07:30:47.006Z,26.10
2022-10-19T07:32:54.613Z,26.13
2022-10-19T07:34:56.151Z,26.53
2022-10-19T07:36:57.699Z,29.57
2022-10-19T07:39:07.617Z,23.97
2022-10-19T07:41:14.268Z,24.93
2022-10-19T07:43:15.792Z,23.93
2022-10-19T07:45:23.618Z,21.43
2022-10-19T07:47:25.181Z,28.67
2022-10-19T07:49:26.728Z,27.67
2022-10-19T07:51:34.652Z,29.10
2022-10-19T07:53:36.893Z,25.77
2022-10-19T07:55:38.416Z,25.07
2022-10-19T07:57:47.139Z,23.40
2022-10-19T07:59:55.660Z,26.10
2022-10-19T08:01:57.358Z,26.10
2022-10-19T08:06:29.671Z,25.93
2022-10-19T08:08:31.350Z,21.13
2022-10-19T08:10:32.928Z,25.93
2022-10-19T08:12:43.650Z,23.70
2022-10-19T08:14:45.267Z,22.73
2022-10-19T08:16:46.808Z,26.70
2022-10-19T08:18:54.680Z,23.97
2022-10-19T08:20:56.370Z,22.87
2022-10-19T08:23:04.726Z,21.37
2022-10-19T08:25:06.459Z,22.37
2022-10-19T08:27:08.101Z,25.50
2022-10-19T08:29:23.795Z,21.87
2022-10-19T08:31:40.769Z,19.63
2022-10-19T08:33:42.909Z,19.77
2022-10-19T08:35:50.684Z,19.63
2022-10-19T08:37:52.571Z,19.97
2022-10-19T08:39:54.533Z,19.63
2022-10-19T08:42:02.676Z,22.40
2022-10-19T08:44:25.946Z,18.90
2022-10-19T08:46:54.077Z,19.10
2022-10-19T08:49:02.708Z,19.30
2022-10-19T08:51:06.399Z,20.53
2022-10-19T08:53:13.967Z,17.70
2022-10-19T08:55:28.682Z,18.47
2022-10-19T08:57:51.717Z,17.30
2022-10-19T09:00:02.754Z,20.03
2022-10-19T09:02:37.327Z,18.00
2022-10-19T09:04:50.718Z,18.80
2022-10-19T09:07:26.306Z,17.73
2022-10-19T09:09:30.756Z,17.30
2022-10-19T09:11:48.744Z,18.13
2022-10-19T09:14:04.636Z,19.30
2022-10-19T09:16:11.969Z,17.87
2022-10-19T09:18:34.760Z,15.53
2022-10-19T09:20:41.289Z,18.30
2022-10-19T09:22:44.373Z,18.03
2022-10-19T09:24:59.835Z,15.17
2022-10-19T09:27:02.116Z,15.23
2022-10-19T09:29:13.220Z,15.90
2022-10-19T09:31:44.809Z,13.77
2022-10-19T09:33:52.347Z,15.17
2022-10-19T09:35:56.584Z,15.63
2022-10-19T09:38:04.766Z,12.70
2022-10-19T09:40:07.223Z,13.50
2022-10-19T09:42:25.769Z,15.50
2022-10-19T09:44:33.760Z,13.33
2022-10-19T09:46:39.031Z,15.37
2022-10-19T09:48:52.289Z,13.70
2022-10-19T09:51:06.774Z,14.17
2022-10-19T09:53:19.132Z,13.73
2022-10-19T09:55:34.917Z,16.07
2022-10-19T09:57:49.802Z,15.57
2022-10-19T09:59:55.313Z,18.07
2022-10-19T10:02:05.905Z,15.33
2022-10-19T10:04:15.781Z,13.83
2022-10-19T10:06:17.785Z,14.87
2022-10-19T10:08:28.844Z,14.77
2022-10-19T10:10:51.806Z,13.97
2022-10-19T10:12:54.017Z,16.30
2022-10-19T10:15:02.788Z,12.43
2022-10-19T10:17:08.136Z,15.63
2022-10-19T10:19:15.640Z,15.33
2022-10-19T10:21:32.802Z,14.93
2022-10-19T10:23:36.407Z,13.77
2022-10-19T10:25:38.009Z,12.80
2022-10-19T10:27:46.815Z,13.57
2022-10-19T10:32:20.205Z,16.87
2022-10-19T10:34:56.898Z,12.53
2022-10-19T10:37:01.223Z,11.60
2022-10-19T10:39:08.379Z,11.47
2022-10-19T10:41:22.839Z,14.60
2022-10-19T10:43:33.354Z,12.43
2022-10-19T10:45:42.702Z,12.10
2022-10-19T10:47:54.879Z,11.97
2022-10-19T10:49:57.964Z,12.23
2022-10-19T10:52:18.631Z,10.57
2022-10-19T10:54:26.856Z,13.23
2022-10-19T10:56:30.258Z,13.43
2022-10-19T10:58:37.453Z,11.90
